createdAt,value
2019-01-15T00:01:45.601Z,6.12
2019-01-15T00:06:52.780Z,10.68
2019-01-15T00:12:07.644Z,11.33
2019-01-15T00:17:08.276Z,11.85
2019-01-15T00:22:28.282Z,11.78
2019-01-15T00:27:16.591Z,10.25
2019-01-15T00:32:25.129Z,12.06
2019-01-15T00:37:32.339Z,10.90
2019-01-15T00:42:53.446Z,10.49
2019-01-15T00:47:40.782Z,12.23
2019-01-15T00:52:48.962Z,12.56
2019-01-15T00:57:56.419Z,8.92
2019-01-15T01:03:03.530Z,10.04
2019-01-15T01:08:12.264Z,6.27
2019-01-15T01:13:19.535Z,8.58
2019-01-15T01:18:27.330Z,5.82
2019-01-15T01:23:34.544Z,4.15
2019-01-15T01:28:42.194Z,3.87
2019-01-15T01:33:49.445Z,4.60
2019-01-15T01:38:56.814Z,4.55
2019-01-15T01:44:03.912Z,2.72
2019-01-15T01:49:11.313Z,6.18
2019-01-15T01:54:18.320Z,4.66
2019-01-15T01:59:27.329Z,4.51
2019-01-15T02:04:37.615Z,3.80
2019-01-15T02:09:36.039Z,4.36
2019-01-15T02:14:43.267Z,4.41
2019-01-15T02:19:50.706Z,4.31
2019-01-15T02:24:57.956Z,5.57
2019-01-15T02:30:05.366Z,5.55
2019-01-15T02:35:13.559Z,4.38
2019-01-15T02:40:20.720Z,4.68
2019-01-15T02:45:28.757Z,4.74
2019-01-15T02:50:37.050Z,5.52
2019-01-15T02:55:44.323Z,4.72
2019-01-15T03:01:04.838Z,3.25
2019-01-15T03:05:52.080Z,6.18
2019-01-15T03:10:59.434Z,5.65
2019-01-15T03:16:06.560Z,3.27
2019-01-15T03:21:14.723Z,3.88
2019-01-15T03:26:22.962Z,4.68
2019-01-15T03:31:31.145Z,4.22
2019-01-15T03:36:38.362Z,2.64
2019-01-15T03:41:45.796Z,4.04
2019-01-15T03:46:53.021Z,4.24
2019-01-15T03:52:00.371Z,4.29
2019-01-15T03:57:07.592Z,4.52
2019-01-15T04:02:15.064Z,2.90
2019-01-15T04:07:23.258Z,4.15
2019-01-15T04:12:30.627Z,2.31
2019-01-15T04:17:37.875Z,1.88
2019-01-15T04:22:45.386Z,1.49
2019-01-15T04:27:52.682Z,2.79
2019-01-15T04:33:00.056Z,2.51
2019-01-15T04:38:07.130Z,2.93
2019-01-15T04:43:19.900Z,2.90
2019-01-15T04:48:22.821Z,1.09
2019-01-15T04:53:30.797Z,2.96
2019-01-15T04:58:38.979Z,2.90
2019-01-15T05:03:46.957Z,0.98
2019-01-15T05:08:54.209Z,1.66
2019-01-15T05:14:01.619Z,2.98
2019-01-15T05:19:08.726Z,1.37
2019-01-15T05:24:17.145Z,1.91
2019-01-15T05:29:24.374Z,3.02
2019-01-15T05:34:31.588Z,2.09
2019-01-15T05:39:39.790Z,4.41
2019-01-15T05:44:46.953Z,5.47
2019-01-15T05:49:55.160Z,2.48
2019-01-15T05:55:02.414Z,1.53
2019-01-15T06:00:10.607Z,3.79
2019-01-15T06:05:17.811Z,2.42
2019-01-15T06:10:26.022Z,3.41
2019-01-15T06:15:33.481Z,2.48
2019-01-15T06:20:40.581Z,1.31
2019-01-15T06:25:48.972Z,3.30
2019-01-15T06:30:56.114Z,3.71
2019-01-15T06:36:04.174Z,2.96
2019-01-15T06:41:12.399Z,1.57
2019-01-15T06:46:20.428Z,3.30
2019-01-15T06:51:28.457Z,2.90
2019-01-15T06:56:38.793Z,1.16
2019-01-15T07:01:46.001Z,2.37
2019-01-15T07:06:54.173Z,2.01
2019-01-15T07:12:01.259Z,1.76
2019-01-15T07:17:23.372Z,3.29
2019-01-15T07:22:10.623Z,2.18
2019-01-15T07:27:33.409Z,2.96
2019-01-15T07:32:21.598Z,2.91
2019-01-15T07:37:30.755Z,3.49
2019-01-15T07:42:37.820Z,3.50
2019-01-15T07:47:58.959Z,3.87
2019-01-15T07:52:46.256Z,3.38
2019-01-15T07:58:06.775Z,3.87
2019-01-15T08:02:53.903Z,1.89
2019-01-15T08:08:02.150Z,3.08
2019-01-15T08:13:09.369Z,3.80
2019-01-15T08:18:17.822Z,4.20
2019-01-15T08:23:24.914Z,7.56
2019-01-15T08:28:33.199Z,6.32
2019-01-15T08:33:40.463Z,7.33
2019-01-15T08:38:47.870Z,10.47
2019-01-15T08:44:07.883Z,7.59
2019-01-15T08:48:56.311Z,6.03
2019-01-15T08:54:17.201Z,6.57
2019-01-15T08:59:05.500Z,10.33
2019-01-15T09:04:26.489Z,6.30
2019-01-15T09:09:14.858Z,8.23
2019-01-15T09:14:26.753Z,8.41
2019-01-15T09:19:30.338Z,5.20
2019-01-15T09:29:55.344Z,4.28
2019-01-15T09:39:46.435Z,3.20
2019-01-15T09:44:53.656Z,3.26
2019-01-15T09:50:00.803Z,4.46
2019-01-15T09:55:09.006Z,3.86
2019-01-15T10:05:20.301Z,4.09
2019-01-15T10:10:27.636Z,4.80
2019-01-15T10:15:34.939Z,3.26
2019-01-15T10:20:55.096Z,3.76
2019-01-15T10:30:47.126Z,3.34
2019-01-15T10:36:07.307Z,4.06
2019-01-15T10:41:08.742Z,4.31
2019-01-15T10:45:57.034Z,1.87
2019-01-15T10:56:08.199Z,3.17
2019-01-15T11:06:32.463Z,4.97
2019-01-15T11:11:20.022Z,4.03
2019-01-15T11:16:40.189Z,4.53
2019-01-15T11:21:27.827Z,3.25
2019-01-15T11:26:47.953Z,4.80
2019-01-15T11:31:35.256Z,2.96
2019-01-15T11:36:43.465Z,4.18
2019-01-15T11:51:56.959Z,3.08
2019-01-15T11:57:04.274Z,5.57
2019-01-15T12:07:29.032Z,3.24
2019-01-15T12:12:17.327Z,4.83
2019-01-15T12:17:24.662Z,4.70
2019-01-15T12:22:45.027Z,6.04
2019-01-15T12:27:32.363Z,5.38
2019-01-15T12:32:39.879Z,5.26
2019-01-15T12:38:00.155Z,3.82
2019-01-15T12:42:48.530Z,4.91
2019-01-15T12:48:09.821Z,4.20
2019-01-15T12:52:57.143Z,3.12
2019-01-15T12:58:05.428Z,4.16
2019-01-15T13:03:25.787Z,2.84
2019-01-15T13:08:14.045Z,3.81
2019-01-15T13:13:34.296Z,5.12
2019-01-15T13:18:21.380Z,3.29
2019-01-15T13:23:42.729Z,4.03
2019-01-15T13:28:42.771Z,3.63
2019-01-15T13:33:36.776Z,2.61
2019-01-15T13:38:38.710Z,3.71
2019-01-15T13:43:47.079Z,2.19
2019-01-15T13:48:54.178Z,4.14
2019-01-15T13:54:02.467Z,1.39
2019-01-15T13:59:10.659Z,7.35
2019-01-15T14:04:18.023Z,2.25
2019-01-15T14:09:25.092Z,2.71
2019-01-15T14:14:33.580Z,5.05
2019-01-15T14:19:41.693Z,2.48
2019-01-15T14:24:49.105Z,3.33
2019-01-15T14:29:57.339Z,3.71
2019-01-15T14:35:17.574Z,4.38
2019-01-15T14:40:04.805Z,2.76
2019-01-15T14:45:12.047Z,1.69
2019-01-15T14:50:20.926Z,0.94
2019-01-15T14:55:29.181Z,1.92
2019-01-15T15:00:36.385Z,1.88
2019-01-15T15:05:43.720Z,4.09
2019-01-15T15:11:03.866Z,3.59
2019-01-15T15:15:51.133Z,3.06
2019-01-15T15:20:59.300Z,1.52
2019-01-15T15:26:06.619Z,3.45
2019-01-15T15:31:13.940Z,4.75
2019-01-15T15:37:27.124Z,2.32
2019-01-15T15:42:47.101Z,2.92
2019-01-15T15:47:35.463Z,3.76
2019-01-15T15:52:43.562Z,7.21
2019-01-15T15:57:51.901Z,6.19
2019-01-15T16:02:59.047Z,3.73
2019-01-15T16:08:08.197Z,4.59
2019-01-15T16:13:28.270Z,5.27
2019-01-15T16:18:15.640Z,5.95
2019-01-15T16:23:23.763Z,5.41
2019-01-15T16:28:31.221Z,4.34
2019-01-15T16:33:38.509Z,3.30
2019-01-15T16:44:00.790Z,4.26
2019-01-15T16:49:00.921Z,2.67
2019-01-15T16:53:49.168Z,4.87
2019-01-15T17:09:17.252Z,3.32
2019-01-15T17:19:05.492Z,4.85
2019-01-15T17:29:27.713Z,1.40
2019-01-15T17:34:14.944Z,1.94
2019-01-15T17:44:39.028Z,2.69
2019-01-15T17:49:26.556Z,2.55
2019-01-15T17:54:46.683Z,3.05
2019-01-15T17:59:34.328Z,2.54
2019-01-15T18:04:54.482Z,4.77
2019-01-15T18:09:54.692Z,3.26
2019-01-15T18:14:41.958Z,5.11
2019-01-15T18:20:02.078Z,2.35
2019-01-15T18:24:51.364Z,2.58
2019-01-15T18:29:58.756Z,4.02
2019-01-15T18:35:05.976Z,2.59
2019-01-15T18:40:14.024Z,3.27
2019-01-15T18:45:22.268Z,3.57
2019-01-15T18:50:42.539Z,5.47
2019-01-15T18:55:31.750Z,3.32
2019-01-15T19:00:39.062Z,4.90
2019-01-15T19:05:46.147Z,2.23
2019-01-15T19:11:07.301Z,5.85
2019-01-15T19:16:07.421Z,4.05
2019-01-15T19:20:54.917Z,4.10
2019-01-15T19:26:01.963Z,3.46
2019-01-15T19:31:10.421Z,1.82
2019-01-15T19:36:17.494Z,2.43
2019-01-15T19:41:25.782Z,3.04
2019-01-15T19:46:33.964Z,2.23
2019-01-15T19:51:41.220Z,3.69
2019-01-15T19:56:49.294Z,4.57
2019-01-15T20:01:57.590Z,4.81
2019-01-15T20:07:04.811Z,4.34
2019-01-15T20:12:12.013Z,5.06
2019-01-15T20:17:20.252Z,3.04
2019-01-15T20:22:27.548Z,2.21
2019-01-15T20:27:35.855Z,1.49
2019-01-15T20:32:43.206Z,1.33
2019-01-15T20:37:50.384Z,6.66
2019-01-15T20:42:58.938Z,4.11
2019-01-15T20:48:06.201Z,1.94
2019-01-15T20:53:26.498Z,2.26
2019-01-15T20:59:23.465Z,1.94
2019-01-15T21:04:21.600Z,2.84
2019-01-15T21:09:32.696Z,1.62
2019-01-15T21:14:30.995Z,2.29
2019-01-15T21:19:38.922Z,1.96
2019-01-15T21:24:47.156Z,4.00
2019-01-15T21:29:54.249Z,2.84
2019-01-15T21:35:15.573Z,2.93
2019-01-15T21:40:02.827Z,1.79
2019-01-15T21:45:10.139Z,1.57
2019-01-15T21:50:31.342Z,2.67
2019-01-15T21:55:20.115Z,2.55
2019-01-15T22:00:27.342Z,1.90
2019-01-15T22:05:35.601Z,1.62
2019-01-15T22:10:42.007Z,0.98
2019-01-15T22:15:50.397Z,3.20
2019-01-15T22:20:58.623Z,0.91
2019-01-15T22:26:18.825Z,1.09
2019-01-15T22:31:06.067Z,1.16
2019-01-15T22:36:13.457Z,1.43
2019-01-15T22:41:20.743Z,1.67
2019-01-15T22:46:27.986Z,1.39
2019-01-15T22:51:36.081Z,2.50
2019-01-15T22:56:44.423Z,1.94
2019-01-15T23:01:52.654Z,1.35
2019-01-15T23:07:00.109Z,2.81
2019-01-15T23:12:07.314Z,1.40
2019-01-15T23:17:27.388Z,2.53
2019-01-15T23:23:34.105Z,3.51
2019-01-15T23:28:22.516Z,3.03
2019-01-15T23:33:29.756Z,1.78
2019-01-15T23:38:37.884Z,3.12
2019-01-15T23:43:45.061Z,2.15
2019-01-15T23:48:52.449Z,1.79
2019-01-15T23:53:59.664Z,2.58
2019-01-15T23:59:07.008Z,1.61
